Time,TemperatureF,DewpointF,PressureIn,WindDirection,WindDirectionDegrees,WindSpeedMPH,WindSpeedGustMPH,Humidity,HourlyPrecipIn,Conditions,Clouds,dailyrainin,SoftwareType,DateUTC
2013-08-20 00:00:00,39.0,35.0,29.92,NE,40,16.0,-999.0,84,-99.99,,,-99.99,,2013-08-20 08:00:00,
2013-08-20 00:41:00,39.0,35.0,29.92,NE,40,16.0,-999.0,84,-99.99,,,-99.99,,2013-08-20 08:41:00,
2013-08-20 00:51:00,39.0,35.0,29.92,NE,40,16.0,-999.0,84,-99.99,,,-99.99,,2013-08-20 08:51:00,
2013-08-20 01:00:00,39.0,33.0,29.92,NNE,30,9.0,-999.0,78,-99.99,,,-99.99,,2013-08-20 09:00:00,
2013-08-20 01:42:00,39.0,33.0,29.92,NNE,30,9.0,-999.0,78,-99.99,,,-99.99,,2013-08-20 09:42:00,
2013-08-20 01:53:00,39.0,33.0,29.92,NNE,30,9.0,-999.0,78,-99.99,,,-99.99,,2013-08-20 09:53:00,
2013-08-20 02:00:00,39.0,33.0,29.91,NE,40,10.0,-999.0,78,-99.99,,,-99.99,,2013-08-20 10:00:00,
2013-08-20 02:42:00,39.0,33.0,29.91,NE,40,10.0,-999.0,78,-99.99,,,-99.99,,2013-08-20 10:42:00,
2013-08-20 02:52:00,39.0,33.0,29.91,NE,40,10.0,-999.0,78,-99.99,,,-99.99,,2013-08-20 10:52:00,
2013-08-20 03:00:00,37.0,31.0,29.91,ENE,70,17.0,-999.0,78,-99.99,,,-99.99,,2013-08-20 11:00:00,
2013-08-20 03:42:00,37.0,31.0,29.91,ENE,70,17.0,-999.0,78,-99.99,,,-99.99,,2013-08-20 11:42:00,
2013-08-20 03:51:00,37.0,31.0,29.91,ENE,70,17.0,-999.0,78,-99.99,,,-99.99,,2013-08-20 11:51:00,
2013-08-20 04:00:00,37.0,31.0,29.91,NNE,30,13.0,-999.0,77,-99.99,,,-99.99,,2013-08-20 12:00:00,
2013-08-20 04:41:00,37.0,31.0,29.91,NNE,30,13.0,-999.0,77,-99.99,,,-99.99,,2013-08-20 12:41:00,
2013-08-20 04:51:00,37.0,31.0,29.91,NNE,30,13.0,-999.0,77,-99.99,,,-99.99,,2013-08-20 12:51:00,
2013-08-20 05:00:00,37.0,31.0,29.91,NNE,30,13.0,-999.0,79,-99.99,,,-99.99,,2013-08-20 13:00:00,
2013-08-20 05:41:00,37.0,31.0,29.91,NNE,30,13.0,-999.0,79,-99.99,,,-99.99,,2013-08-20 13:41:00,
2013-08-20 05:52:00,37.0,31.0,29.91,NNE,30,13.0,-999.0,79,-99.99,,,-99.99,,2013-08-20 13:52:00,
2013-08-20 06:00:00,37.0,32.0,29.91,NNE,20,10.0,-999.0,80,-99.99,,,-99.99,,2013-08-20 14:00:00,
2013-08-20 06:41:00,37.0,32.0,29.91,NNE,20,10.0,-999.0,80,-99.99,,,-99.99,,2013-08-20 14:41:00,
2013-08-20 06:52:00,37.0,32.0,29.91,NNE,20,10.0,-999.0,80,-99.99,,,-99.99,,2013-08-20 14:52:00,
2013-08-20 07:00:00,36.0,30.0,29.92,North,10,9.0,-999.0,80,-99.99,,,-99.99,,2013-08-20 15:00:00,
2013-08-20 07:43:00,36.0,30.0,29.92,North,10,9.0,-999.0,80,-99.99,,,-99.99,,2013-08-20 15:43:00,
2013-08-20 07:53:00,36.0,30.0,29.92,North,10,9.0,-999.0,80,-99.99,,,-99.99,,2013-08-20 15:53:00,
2013-08-20 08:00:00,34.0,28.0,29.92,NNW,330,13.0,-999.0,78,-99.99,,,-99.99,,2013-08-20 16:00:00,
2013-08-20 08:30:00,-999.0,-99.9,29.92,NNW,330,13.0,-999.0,78,-99.99,,,-99.99,,2013-08-20 16:30:00,
2013-08-20 08:42:00,34.0,28.0,29.92,NNW,330,13.0,-999.0,78,-99.99,,,-99.99,,2013-08-20 16:42:00,
2013-08-20 08:52:00,34.0,28.0,29.92,NNW,330,13.0,-999.0,78,-99.99,,,-99.99,,2013-08-20 16:52:00,
2013-08-20 09:00:00,34.0,28.0,29.92,North,0,10.0,-999.0,79,-99.99,,,-99.99,,2013-08-20 17:00:00,
2013-08-20 09:43:00,34.0,28.0,29.92,North,0,10.0,-999.0,79,-99.99,,,-99.99,,2013-08-20 17:43:00,
2013-08-20 09:52:00,34.0,28.0,29.92,North,0,10.0,-999.0,79,-99.99,,,-99.99,,2013-08-20 17:52:00,
2013-08-20 10:00:00,33.0,28.0,29.93,NNE,30,9.0,-999.0,82,-99.99,,,-99.99,,2013-08-20 18:00:00,
2013-08-20 10:43:00,33.0,28.0,29.93,NNE,30,9.0,-999.0,82,-99.99,,,-99.99,,2013-08-20 18:43:00,
2013-08-20 10:52:00,33.0,28.0,29.93,NNE,30,9.0,-999.0,82,-99.99,,,-99.99,,2013-08-20 18:52:00,
2013-08-20 11:00:00,30.0,26.0,29.93,NNW,340,10.0,-999.0,84,-99.99,,,-99.99,,2013-08-20 19:00:00,
2013-08-20 11:41:00,30.0,26.0,29.93,NNW,340,10.0,-999.0,84,-99.99,,,-99.99,,2013-08-20 19:41:00,
2013-08-20 11:52:00,30.0,26.0,29.93,NNW,340,10.0,-999.0,84,-99.99,,,-99.99,,2013-08-20 19:52:00,
2013-08-20 12:00:00,31.0,26.0,29.94,NNW,330,10.0,-999.0,82,-99.99,,,-99.99,,2013-08-20 20:00:00,
2013-08-20 12:42:00,31.0,26.0,29.94,NNW,330,10.0,-999.0,82,-99.99,,,-99.99,,2013-08-20 20:42:00,
2013-08-20 12:52:00,31.0,26.0,29.94,NNW,330,10.0,-999.0,82,-99.99,,,-99.99,,2013-08-20 20:52:00,
2013-08-20 13:00:00,31.0,26.0,29.94,WNW,300,10.0,-999.0,83,-99.99,,,-99.99,,2013-08-20 21:00:00,
2013-08-20 13:44:00,31.0,26.0,29.94,WNW,300,10.0,-999.0,83,-99.99,,,-99.99,,2013-08-20 21:44:00,
2013-08-20 13:55:00,31.0,26.0,29.94,WNW,300,10.0,-999.0,83,-99.99,,,-99.99,,2013-08-20 21:55:00,
2013-08-20 14:00:00,31.0,27.0,29.95,NW,310,15.0,-999.0,85,-99.99,,,-99.99,,2013-08-20 22:00:00,
2013-08-20 14:42:00,31.0,27.0,29.95,NW,310,15.0,-999.0,85,-99.99,,,-99.99,,2013-08-20 22:42:00,
2013-08-20 14:53:00,31.0,27.0,29.95,NW,310,15.0,-999.0,85,-99.99,,,-99.99,,2013-08-20 22:53:00,
2013-08-20 15:00:00,30.0,26.0,29.95,NW,310,14.0,-999.0,85,-99.99,,,-99.99,,2013-08-20 23:00:00,
2013-08-20 15:42:00,30.0,26.0,29.95,NW,310,14.0,-999.0,85,-99.99,,,-99.99,,2013-08-20 23:42:00,
2013-08-20 15:52:00,30.0,26.0,29.95,NW,310,14.0,-999.0,85,-99.99,,,-99.99,,2013-08-20 23:52:00,
2013-08-20 16:00:00,32.0,28.0,29.94,WNW,290,9.0,-999.0,85,-99.99,,,-99.99,,2013-08-21 00:00:00,
2013-08-20 16:41:00,32.0,28.0,29.94,WNW,290,9.0,-999.0,85,-99.99,,,-99.99,,2013-08-21 00:41:00,
2013-08-20 16:52:00,32.0,28.0,29.94,WNW,290,9.0,-999.0,85,-99.99,,,-99.99,,2013-08-21 00:52:00,
2013-08-20 17:00:00,33.0,28.0,29.94,WNW,300,14.0,-999.0,83,-99.99,,,-99.99,,2013-08-21 01:00:00,
2013-08-20 17:42:00,33.0,28.0,29.94,WNW,300,14.0,-999.0,83,-99.99,,,-99.99,,2013-08-21 01:42:00,
2013-08-20 17:52:00,33.0,28.0,29.94,WNW,300,14.0,-999.0,83,-99.99,,,-99.99,,2013-08-21 01:52:00,
2013-08-20 18:00:00,34.0,28.0,29.94,West,280,16.0,-999.0,79,-99.99,,,-99.99,,2013-08-21 02:00:00,
2013-08-20 18:42:00,34.0,28.0,29.94,West,280,16.0,-999.0,79,-99.99,,,-99.99,,2013-08-21 02:42:00,
2013-08-20 18:52:00,34.0,28.0,29.94,West,280,16.0,-999.0,79,-99.99,,,-99.99,,2013-08-21 02:52:00,
2013-08-20 19:00:00,34.0,32.0,29.94,WNW,300,18.0,-999.0,93,-99.99,,,-99.99,,2013-08-21 03:00:00,
2013-08-20 19:44:00,34.0,32.0,29.94,WNW,300,18.0,-999.0,93,-99.99,,,-99.99,,2013-08-21 03:44:00,
2013-08-20 19:55:00,34.0,32.0,29.94,WNW,300,18.0,-999.0,93,-99.99,,,-99.99,,2013-08-21 03:55:00,
2013-08-20 20:00:00,34.0,32.0,29.93,WNW,290,17.0,-999.0,90,-99.99,,,-99.99,,2013-08-21 04:00:00,
2013-08-20 20:44:00,34.0,32.0,29.93,WNW,290,17.0,-999.0,90,-99.99,,,-99.99,,2013-08-21 04:44:00,
2013-08-20 20:54:00,34.0,32.0,29.93,WNW,290,17.0,-999.0,90,-99.99,,,-99.99,,2013-08-21 04:54:00,
2013-08-20 21:00:00,36.0,32.0,29.92,NW,310,23.0,-999.0,87,-99.99,,,-99.99,,2013-08-21 05:00:00,
2013-08-20 21:43:00,36.0,32.0,29.92,NW,310,23.0,-999.0,87,-99.99,,,-99.99,,2013-08-21 05:43:00,
2013-08-20 21:52:00,36.0,32.0,29.92,NW,310,23.0,-999.0,87,-99.99,,,-99.99,,2013-08-21 05:52:00,
2013-08-20 22:00:00,36.0,32.0,29.92,WNW,290,24.0,-999.0,85,-99.99,,,-99.99,,2013-08-21 06:00:00,
2013-08-20 22:42:00,36.0,32.0,29.92,WNW,290,24.0,-999.0,85,-99.99,,,-99.99,,2013-08-21 06:42:00,
2013-08-20 22:52:00,36.0,32.0,29.92,WNW,290,24.0,-999.0,85,-99.99,,,-99.99,,2013-08-21 06:52:00,
2013-08-20 23:00:00,36.0,33.0,29.91,West,280,26.0,-999.0,89,-99.99,,,-99.99,,2013-08-21 07:00:00,
2013-08-20 23:42:00,36.0,33.0,29.91,West,280,26.0,-999.0,89,-99.99,,,-99.99,,2013-08-21 07:42:00,
2013-08-20 23:53:00,36.0,33.0,29.91,West,280,26.0,-999.0,89,-99.99,,,-99.99,,2013-08-21 07:53:00,